Time;durP1;ratioP1;P1;durP2;ratioP2;P2;SDS_P1;SDS_P2;PMS_P1;PMS_P2;Temp;Humidity;BMP_temperature;BMP_pressure;BME280_temperature;BME280_humidity;BME280_pressure;Samples;Min_cycle;Max_cycle;Signal;HPM_P1;HPM_P2
2023/05/01 00:01:16;;;;;;;;;7.67;7.00;;;;;19.84;38.92;101233.03;4997043;28;59468;-42
2023/05/01 00:03:41;;;;;;;;;6.00;6.00;;;;;19.85;39.51;101229.44;4996852;28;61806;-47
2023/05/01 00:06:07;;;;;;;;;7.75;7.75;;;;;19.86;39.33;101230.34;4997719;28;47105;-45
2023/05/01 00:08:33;;;;;;;;;6.25;6.25;;;;;19.85;39.56;101225.97;4997502;28;45463;-48
2023/05/01 00:11:02;;;;;;;;;9.75;8.00;;;;;19.84;39.35;101233.03;4997299;28;45391;-49
2023/05/01 00:13:28;;;;;;;;;9.25;8.00;;;;;19.85;38.97;101229.44;4999632;28;45729;-44
2023/05/01 00:15:54;;;;;;;;;8.25;8.25;;;;;19.85;39.51;101218.91;5011798;28;45741;-40
2023/05/01 00:18:20;;;;;;;;;9.75;8.00;;;;;19.85;39.41;101212.81;5001622;28;45335;-45
2023/05/01 00:20:45;;;;;;;;;8.25;8.25;;;;;19.86;39.69;101219.81;5001639;28;46531;-47
2023/05/01 00:23:11;;;;;;;;;10.00;9.00;;;;;19.84;39.24;101221.63;5000759;28;45178;-49
2023/05/01 00:25:37;;;;;;;;;7.00;7.00;;;;;19.86;39.18;101209.31;4998403;28;45272;-46
2023/05/01 00:28:02;;;;;;;;;9.00;7.25;;;;;19.84;39.36;101203.22;4998665;28;45478;-48
2023/05/01 00:30:27;;;;;;;;;7.00;7.00;;;;;19.86;39.48;101209.31;4997632;28;46025;-47
2023/05/01 00:32:53;;;;;;;;;9.50;7.75;;;;;19.85;39.28;101204.94;5000819;28;45348;-48
2023/05/01 00:35:18;;;;;;;;;8.00;8.00;;;;;19.84;39.57;101204.09;5015905;28;44746;-45
2023/05/01 00:37:43;;;;;;;;;8.00;7.00;;;;;19.85;39.68;101202.31;5004160;28;45540;-47
2023/05/01 00:40:09;;;;;;;;;10.50;8.00;;;;;19.86;39.52;101198.78;4997520;28;46287;-49
2023/05/01 00:42:38;;;;;;;;;8.50;8.50;;;;;19.85;39.35;101197.88;4997567;28;45328;-47
2023/05/01 00:45:06;;;;;;;;;9.50;8.50;;;;;19.84;39.17;101195.31;4997803;28;45241;-50
2023/05/01 00:47:35;;;;;;;;;6.00;4.00;;;;;19.86;39.21;101193.53;5001409;28;45562;-48
2023/05/01 00:50:02;;;;;;;;;8.75;8.00;;;;;19.85;39.64;101186.50;5009058;28;46899;-46
2023/05/01 00:52:27;;;;;;;;;8.00;8.00;;;;;19.85;39.65;101189.97;5007709;28;45857;-49
2023/05/01 00:54:53;;;;;;;;;8.50;8.50;;;;;19.86;39.76;101189.09;5003901;28;45373;-47
2023/05/01 00:57:20;;;;;;;;;10.25;8.00;;;;;19.84;39.71;101184.81;5003584;28;45275;-39
2023/05/01 00:59:46;;;;;;;;;11.00;10.00;;;;;19.86;39.50;101190.88;5000769;28;45232;-39
2023/05/01 01:02:12;;;;;;;;;9.00;8.50;;;;;19.83;39.58;101180.47;5000758;28;45320;-42
2023/05/01 01:04:40;;;;;;;;;11.75;8.75;;;;;19.83;39.47;101172.56;5023044;28;45284;-42
2023/05/01 01:07:34;;;;;;;;;9.25;9.25;;;;;19.85;40.08;101165.47;5021137;28;45298;-46
2023/05/01 01:10:05;;;;;;;;;10.75;7.25;;;;;19.85;39.49;101168.09;5001232;28;46513;-44
2023/05/01 01:12:46;;;;;;;;;9.75;9.75;;;;;19.84;39.73;101169.03;5005352;28;45182;-43
2023/05/01 01:15:17;;;;;;;;;9.50;8.00;;;;;19.85;39.92;101168.94;5021189;28;44775;-43
2023/05/01 01:18:11;;;;;;;;;10.25;8.50;;;;;19.85;39.39;101165.47;5020162;28;44775;-48
2023/05/01 01:20:48;;;;;;;;;9.75;9.25;;;;;19.85;39.63;101161.06;5007617;28;46186;-48
2023/05/01 01:23:33;;;;;;;;;9.25;9.00;;;;;19.85;39.61;101157.59;4999540;28;45908;-48
2023/05/01 01:26:16;;;;;;;;;9.00;8.25;;;;;19.85;40.09;101157.59;4999177;28;45390;-43
2023/05/01 01:28:51;;;;;;;;;7.25;7.00;;;;;19.85;39.80;101152.31;4999559;28;45500;-45
2023/05/01 01:31:21;;;;;;;;;9.00;8.00;;;;;19.83;39.99;101146.28;4998815;28;46065;-47
2023/05/01 01:34:11;;;;;;;;;9.50;8.75;;;;;19.84;39.71;101150.63;4998839;28;45513;-39
2023/05/01 01:36:41;;;;;;;;;7.00;7.00;;;;;19.85;40.25;101147.06;4998903;28;45861;-50
2023/05/01 01:39:25;;;;;;;;;10.00;8.50;;;;;19.85;39.97;101149.69;4998900;28;45397;-48
2023/05/01 01:41:53;;;;;;;;;11.50;8.00;;;;;19.84;40.19;101147.97;5010350;28;47513;-51
2023/05/01 01:44:28;;;;;;;;;7.50;7.50;;;;;19.84;39.86;101145.34;5015624;28;45169;-45
2023/05/01 01:46:54;;;;;;;;;9.00;9.00;;;;;19.82;39.80;101142.81;4998631;28;45336;-47
2023/05/01 01:49:23;;;;;;;;;9.75;8.25;;;;;19.84;39.52;101151.47;4998976;28;45558;-46
2023/05/01 01:51:51;;;;;;;;;8.75;8.75;;;;;19.84;39.92;101147.97;4998343;28;46148;-48
2023/05/01 01:54:23;;;;;;;;;9.00;9.00;;;;;19.84;40.16;101143.59;4998772;28;45852;-42
2023/05/01 01:56:50;;;;;;;;;9.50;9.25;;;;;19.85;39.97;101141.78;4998563;28;45266;-48
2023/05/01 01:59:16;;;;;;;;;11.00;9.00;;;;;19.85;40.17;101144.44;4999044;28;45322;-49
2023/05/01 02:01:43;;;;;;;;;10.75;10.00;;;;;19.83;40.26;101149.78;4998312;28;47104;-48
2023/05/01 02:04:12;;;;;;;;;10.25;9.00;;;;;19.86;40.03;101151.44;4998392;28;45315;-45
2023/05/01 02:06:40;;;;;;;;;10.00;10.00;;;;;19.83;40.05;101147.16;5000476;28;45358;-47
2023/05/01 02:09:08;;;;;;;;;9.00;9.00;;;;;19.85;40.06;101160.22;5007348;28;45506;-47
2023/05/01 02:11:36;;;;;;;;;9.00;9.00;;;;;19.85;40.00;101154.94;5007545;28;46069;-49
2023/05/01 02:14:03;;;;;;;;;9.25;8.25;;;;;19.85;39.97;101154.94;5017078;28;45167;-45
2023/05/01 02:16:29;;;;;;;;;12.25;10.00;;;;;19.86;40.31;101148.81;5018423;28;45509;-48
2023/05/01 02:18:56;;;;;;;;;9.00;9.00;;;;;19.86;40.25;101159.31;5018378;28;45341;-48
2023/05/01 02:21:23;;;;;;;;;10.75;10.75;;;;;19.84;39.92;101153.25;5016808;28;45506;-47
2023/05/01 02:23:49;;;;;;;;;12.50;10.00;;;;;19.85;39.85;101149.69;5010632;28;45288;-40
2023/05/01 02:26:17;;;;;;;;;11.25;10.00;;;;;19.86;40.51;101154.06;5023792;28;45237;-47
2023/05/01 02:28:43;;;;;;;;;9.25;9.25;;;;;19.85;39.86;101152.31;4999426;28;45229;-48
2023/05/01 02:31:09;;;;;;;;;9.00;9.00;;;;;19.84;40.10;101147.97;4998213;28;46802;-44
2023/05/01 02:33:34;;;;;;;;;9.75;9.00;;;;;19.86;39.88;101151.44;4996947;28;46025;-43
2023/05/01 02:35:59;;;;;;;;;12.00;9.00;;;;;19.83;40.23;101147.16;4997557;28;54221;-46
2023/05/01 02:38:25;;;;;;;;;11.00;9.00;;;;;19.85;39.91;101152.31;4997246;28;50015;-46
2023/05/01 02:40:55;;;;;;;;;9.00;9.00;;;;;19.85;39.95;101149.69;4997885;28;47058;-46
2023/05/01 02:43:21;;;;;;;;;10.00;10.00;;;;;19.85;40.12;101157.59;5006083;28;45768;-40
2023/05/01 02:45:50;;;;;;;;;6.75;5.50;;;;;19.87;39.92;101158.41;5002069;28;45272;-44
2023/05/01 02:48:24;;;;;;;;;11.50;9.50;;;;;19.87;39.84;101161.03;4999269;28;45312;-46
2023/05/01 02:50:51;;;;;;;;;10.00;10.00;;;;;19.86;40.11;101161.94;5004291;28;45540;-45
2023/05/01 02:53:17;;;;;;;;;9.00;9.00;;;;;19.83;40.08;101151.53;5001282;28;45561;-41
2023/05/01 02:55:43;;;;;;;;;9.50;9.50;;;;;19.86;39.86;101162.78;5019910;28;44683;-47
2023/05/01 02:58:14;;;;;;;;;10.00;10.00;;;;;19.87;40.44;101158.41;5014607;28;44897;-46
2023/05/01 03:00:39;;;;;;;;;13.00;10.50;;;;;19.86;39.96;101156.69;4998052;28;45663;-46
2023/05/01 03:03:05;;;;;;;;;10.25;10.25;;;;;19.84;39.98;101147.97;4997771;28;45459;-49
2023/05/01 03:05:30;;;;;;;;;13.00;11.75;;;;;19.84;40.10;101155.88;4996588;28;45430;-50
2023/05/01 03:07:55;;;;;;;;;10.33;9.00;;;;;19.86;39.91;101161.94;4997348;28;45483;-47
2023/05/01 03:10:21;;;;;;;;;9.00;9.00;;;;;19.85;40.38;101154.94;4997393;28;46573;-47
2023/05/01 03:12:46;;;;;;;;;14.00;12.25;;;;;19.85;40.06;101160.22;4997314;28;45337;-45
2023/05/01 03:15:12;;;;;;;;;10.50;9.75;;;;;19.86;40.12;101154.91;4997702;28;52707;-50
2023/05/01 03:17:37;;;;;;;;;13.50;10.25;;;;;19.85;40.47;101154.94;4998460;28;45249;-44
2023/05/01 03:20:05;;;;;;;;;8.75;8.50;;;;;19.83;40.12;101152.41;4996640;28;53076;-47
2023/05/01 03:22:31;;;;;;;;;10.00;9.00;;;;;19.85;40.27;101149.69;4997958;28;45863;-47
2023/05/01 03:24:57;;;;;;;;;10.50;9.50;;;;;19.84;40.05;101154.13;4996924;28;45496;-49
2023/05/01 03:27:22;;;;;;;;;10.25;8.50;;;;;19.84;40.54;101153.25;5020530;28;45317;-38
2023/05/01 03:29:48;;;;;;;;;10.25;8.50;;;;;19.82;39.94;101149.81;4998204;28;46515;-45
2023/05/01 03:32:15;;;;;;;;;8.25;8.00;;;;;19.85;40.39;101152.31;4996328;28;45780;-47
2023/05/01 03:34:40;;;;;;;;;10.00;9.25;;;;;19.85;40.44;101155.78;4997727;28;45304;-44
2023/05/01 03:37:05;;;;;;;;;11.33;8.00;;;;;19.84;40.68;101158.50;4997578;28;45425;-48
2023/05/01 03:39:31;;;;;;;;;10.50;8.75;;;;;19.84;40.17;101154.13;4997247;28;45473;-47
2023/05/01 03:41:56;;;;;;;;;12.00;10.25;;;;;19.83;40.21;101152.41;4997175;28;45329;-49
2023/05/01 03:44:21;;;;;;;;;8.25;7.50;;;;;19.86;40.23;101160.16;4997793;28;45326;-48
2023/05/01 03:46:47;;;;;;;;;12.50;9.50;;;;;19.83;40.25;101152.41;4997629;28;45630;-49
2023/05/01 03:49:12;;;;;;;;;9.00;9.00;;;;;19.84;40.08;101153.25;4997287;28;46026;-52
2023/05/01 03:51:37;;;;;;;;;11.50;10.00;;;;;19.86;40.64;101156.69;4997147;28;45473;-49
2023/05/01 03:54:03;;;;;;;;;9.00;9.00;;;;;19.85;40.56;101162.84;5012596;28;45305;-50
2023/05/01 03:56:34;;;;;;;;;15.25;10.00;;;;;19.85;39.99;101160.22;4998211;28;45332;-51
2023/05/01 03:58:59;;;;;;;;;12.00;10.00;;;;;19.83;40.20;101151.53;4997632;28;47053;-46
2023/05/01 04:01:25;;;;;;;;;10.67;10.67;;;;;19.86;40.26;101164.59;5007438;28;57057;-47
2023/05/01 04:03:50;;;;;;;;;10.25;10.25;;;;;19.85;40.54;101168.09;5013429;28;45460;-49
2023/05/01 04:06:16;;;;;;;;;9.50;9.00;;;;;19.82;40.10;101161.22;5004159;28;45341;-46
2023/05/01 04:08:42;;;;;;;;;10.75;9.00;;;;;19.84;40.49;101156.75;5004269;28;46019;-49
2023/05/01 04:11:08;;;;;;;;;8.00;8.00;;;;;19.83;40.11;101157.66;5014970;28;44889;-45
2023/05/01 04:13:33;;;;;;;;;9.00;8.00;;;;;19.84;40.64;101166.41;5012708;28;45373;-45
2023/05/01 04:15:58;;;;;;;;;10.00;9.00;;;;;19.82;40.52;101155.09;5015304;28;45482;-42
2023/05/01 04:18:24;;;;;;;;;11.00;10.00;;;;;19.83;40.35;101157.66;5004926;28;45324;-48
2023/05/01 04:20:50;;;;;;;;;10.00;10.00;;;;;19.84;40.23;101158.50;4997705;28;45262;-49
2023/05/01 04:23:15;;;;;;;;;9.00;9.00;;;;;19.83;40.27;101162.94;4997648;28;45352;-46
2023/05/01 04:25:41;;;;;;;;;11.25;10.50;;;;;19.85;40.29;101163.69;4997430;28;45403;-46
2023/05/01 04:28:06;;;;;;;;;9.00;9.00;;;;;19.85;40.38;101162.84;4997463;28;46358;-43
2023/05/01 04:30:32;;;;;;;;;9.00;8.75;;;;;19.85;40.69;101165.47;4999545;28;45151;-45
2023/05/01 04:32:58;;;;;;;;;9.50;9.50;;;;;19.83;40.30;101167.31;5015242;28;45383;-41
2023/05/01 04:35:24;;;;;;;;;11.00;11.00;;;;;19.85;40.36;101171.56;5001544;28;45373;-47
2023/05/01 04:37:50;;;;;;;;;8.25;8.25;;;;;19.84;40.79;101171.66;5000648;28;47025;-51
2023/05/01 04:40:16;;;;;;;;;11.00;11.00;;;;;19.85;40.29;101176.84;5000371;28;45461;-51
2023/05/01 04:42:41;;;;;;;;;11.50;9.00;;;;;19.86;40.54;101177.72;5000637;28;45429;-47
2023/05/01 04:45:07;;;;;;;;;13.25;11.50;;;;;19.86;40.39;101181.19;5012173;28;45313;-45
2023/05/01 04:47:32;;;;;;;;;9.25;9.25;;;;;19.85;41.06;101181.25;5011127;28;47078;-47
2023/05/01 04:49:57;;;;;;;;;11.75;10.25;;;;;19.85;40.45;101182.09;5001657;28;45919;-40
2023/05/01 04:52:23;;;;;;;;;12.25;10.25;;;;;19.87;40.92;101184.72;5001109;28;45353;-42
2023/05/01 04:54:48;;;;;;;;;12.25;9.75;;;;;19.87;40.59;101176.81;5000554;28;45340;-42
2023/05/01 04:57:14;;;;;;;;;12.00;12.00;;;;;19.87;40.64;101182.91;5000251;28;46126;-41
2023/05/01 04:59:39;;;;;;;;;11.50;10.50;;;;;19.85;41.01;101176.00;5016771;28;45304;-43
2023/05/01 05:02:04;;;;;;;;;10.75;9.00;;;;;19.86;40.85;101177.72;5012494;28;45280;-42
2023/05/01 05:04:30;;;;;;;;;11.00;11.00;;;;;19.88;40.63;101183.78;5019234;28;45198;-40
2023/05/01 05:06:55;;;;;;;;;12.00;11.00;;;;;19.90;41.14;101189.78;5019107;28;62324;-42
2023/05/01 05:09:20;;;;;;;;;12.00;11.00;;;;;19.87;41.18;101185.53;5002449;28;45242;-43
2023/05/01 05:11:46;;;;;;;;;11.50;9.00;;;;;19.89;41.15;101188.13;5001170;28;45384;-44
2023/05/01 05:14:11;;;;;;;;;12.75;11.00;;;;;19.89;41.42;101188.97;4999289;28;45266;-45
2023/05/01 05:16:36;;;;;;;;;11.00;11.00;;;;;19.89;40.89;101199.47;4998473;28;55477;-41
2023/05/01 05:19:02;;;;;;;;;11.75;11.75;;;;;19.91;41.32;101191.50;4998575;28;49923;-37
2023/05/01 05:21:27;;;;;;;;;10.25;10.25;;;;;19.89;41.09;101193.38;4999310;28;45451;-41
2023/05/01 05:23:53;;;;;;;;;12.25;12.25;;;;;19.91;41.13;101196.78;4999103;28;45590;-40
2023/05/01 05:26:18;;;;;;;;;10.25;10.25;;;;;19.90;40.97;101197.69;4998731;28;46373;-49
2023/05/01 05:28:44;;;;;;;;;12.75;10.75;;;;;19.88;41.50;101197.78;4998642;28;45439;-51
2023/05/01 05:31:09;;;;;;;;;12.50;11.00;;;;;19.91;41.01;101202.91;4998996;28;45271;-46
2023/05/01 05:33:34;;;;;;;;;15.00;13.00;;;;;19.91;41.22;101200.28;4998913;28;45359;-46
2023/05/01 05:36:00;;;;;;;;;12.25;11.75;;;;;19.88;41.25;101199.56;4998828;28;46452;-49
2023/05/01 05:38:25;;;;;;;;;12.75;10.50;;;;;19.92;41.28;101203.75;4997379;28;45711;-47
2023/05/01 05:40:53;;;;;;;;;13.50;10.75;;;;;19.86;41.19;101190.88;4999010;28;45396;-42
2023/05/01 05:43:18;;;;;;;;;8.25;6.00;;;;;19.92;41.15;101204.59;4999957;28;45309;-47
2023/05/01 05:45:43;;;;;;;;;14.50;11.25;;;;;19.92;41.01;101203.75;5000077;28;47304;-48
2023/05/01 05:48:08;;;;;;;;;12.00;11.50;;;;;19.93;41.48;101210.72;4999521;28;45350;-48
2023/05/01 05:50:34;;;;;;;;;11.00;9.50;;;;;19.93;41.28;101213.34;4999377;28;45277;-49
2023/05/01 05:52:59;;;;;;;;;11.00;11.00;;;;;19.93;41.10;101202.81;5001586;28;45376;-47
2023/05/01 05:55:24;;;;;;;;;9.25;9.25;;;;;19.91;41.29;101205.53;5000557;28;46077;-49
2023/05/01 05:57:50;;;;;;;;;15.00;11.00;;;;;19.93;41.37;101197.56;5000224;28;45236;-49
2023/05/01 06:00:16;;;;;;;;;9.00;9.00;;;;;19.92;41.51;101198.47;5002182;28;45366;-49
2023/05/01 06:02:41;;;;;;;;;11.75;9.75;;;;;19.93;41.47;101203.69;5005053;28;45379;-44
2023/05/01 06:05:07;;;;;;;;;12.00;10.50;;;;;19.93;41.16;101200.19;5009174;28;47512;-44
2023/05/01 06:07:32;;;;;;;;;12.75;9.25;;;;;19.91;41.22;101195.00;5015741;28;45396;-43
2023/05/01 06:10:04;;;;;;;;;14.00;11.75;;;;;19.92;41.59;101193.22;5033892;28;44798;-48
2023/05/01 06:12:30;;;;;;;;;10.00;8.00;;;;;19.94;41.25;101201.91;5017625;28;45434;-50
2023/05/01 06:14:56;;;;;;;;;8.00;8.00;;;;;19.95;41.12;101198.34;5014704;28;46530;-50
2023/05/01 06:17:22;;;;;;;;;10.00;10.00;;;;;19.96;41.27;101205.31;5005439;28;45253;-46
2023/05/01 06:19:48;;;;;;;;;11.50;11.00;;;;;19.94;41.19;101201.91;5001338;28;45841;-48
2023/05/01 06:22:13;;;;;;;;;15.00;12.00;;;;;19.93;41.14;101206.31;5009550;28;45596;-46
2023/05/01 06:24:38;;;;;;;;;10.33;9.00;;;;;19.95;41.30;101205.41;5003786;28;53394;-45
2023/05/01 06:27:04;;;;;;;;;10.00;10.00;;;;;19.94;41.45;101201.91;5000617;28;65608;-41
2023/05/01 06:29:30;;;;;;;;;10.50;10.25;;;;;19.94;41.60;101212.41;4999205;28;45489;-49
2023/05/01 06:31:55;;;;;;;;;10.25;10.25;;;;;19.95;41.28;101203.59;4998402;28;45700;-49
2023/05/01 06:34:20;;;;;;;;;8.00;8.00;;;;;19.95;41.70;101214.13;4997804;28;47137;-42
2023/05/01 06:36:46;;;;;;;;;10.25;10.25;;;;;19.96;41.74;101209.69;4997960;28;45363;-49
2023/05/01 06:39:11;;;;;;;;;14.25;10.75;;;;;19.95;41.42;101208.03;4998501;28;52817;-47
2023/05/01 06:41:37;;;;;;;;;10.50;10.50;;;;;19.97;41.61;101217.53;5012482;28;45502;-47
2023/05/01 06:44:03;;;;;;;;;14.25;14.00;;;;;19.95;41.42;101219.38;5004415;28;46029;-42
2023/05/01 06:46:28;;;;;;;;;10.50;10.50;;;;;19.96;41.29;101214.97;5004982;28;45255;-42
2023/05/01 06:48:53;;;;;;;;;12.25;9.50;;;;;19.97;41.71;101221.94;5003436;28;45210;-49
2023/05/01 06:51:19;;;;;;;;;10.75;8.75;;;;;19.99;41.91;101220.97;5001963;28;45357;-41
2023/05/01 06:53:44;;;;;;;;;10.50;10.50;;;;;19.98;41.44;101210.50;5000515;28;46969;-41
2023/05/01 06:56:10;;;;;;;;;11.75;11.00;;;;;19.99;41.75;101207.81;4997675;28;45309;-41
2023/05/01 06:58:35;;;;;;;;;11.75;10.00;;;;;20.00;41.77;101214.78;4997951;28;45344;-42
2023/05/01 07:01:00;;;;;;;;;10.25;10.25;;;;;20.02;41.66;101219.97;4998358;28;45533;-43
2023/05/01 07:03:26;;;;;;;;;10.00;10.00;;;;;20.02;41.46;101220.78;4997577;28;45282;-44
2023/05/01 07:05:53;;;;;;;;;10.25;9.25;;;;;20.03;41.55;101222.50;4999853;28;45181;-48
2023/05/01 07:08:18;;;;;;;;;8.75;8.75;;;;;20.04;41.79;101228.63;5000688;28;45399;-48
2023/05/01 07:10:43;;;;;;;;;13.00;9.50;;;;;20.03;41.98;101230.41;5008173;28;45546;-47
2023/05/01 07:13:09;;;;;;;;;8.50;7.50;;;;;20.05;41.69;101233.81;4999148;28;45384;-45
2023/05/01 07:15:34;;;;;;;;;12.75;12.00;;;;;20.06;41.54;101232.91;4999706;28;45385;-46
2023/05/01 07:18:01;;;;;;;;;11.50;11.50;;;;;20.06;41.91;101232.06;4999935;28;45298;-49
2023/05/01 07:20:27;;;;;;;;;8.00;8.00;;;;;20.09;41.76;101237.16;5009543;28;46217;-44
2023/05/01 07:22:52;;;;;;;;;9.75;8.75;;;;;20.10;41.68;101248.53;5009937;28;45360;-40
2023/05/01 07:25:17;;;;;;;;;11.75;10.75;;;;;20.08;42.05;101241.56;5013040;28;46706;-42
2023/05/01 07:27:43;;;;;;;;;8.25;8.25;;;;;20.10;41.89;101243.28;4999456;28;45580;-47
2023/05/01 07:30:09;;;;;;;;;12.33;10.67;;;;;20.07;42.10;101234.59;4997472;28;52777;-38
2023/05/01 07:32:34;;;;;;;;;9.50;9.50;;;;;20.11;41.60;101235.31;4997704;28;46694;-41
2023/05/01 07:34:59;;;;;;;;;10.50;10.50;;;;;20.12;41.99;101237.00;4997487;28;46597;-42
2023/05/01 07:37:25;;;;;;;;;14.25;12.00;;;;;20.13;41.72;101237.84;4998520;28;45416;-47
2023/05/01 07:39:51;;;;;;;;;10.50;10.00;;;;;20.16;41.55;101242.97;4997927;28;45357;-48
2023/05/01 07:42:16;;;;;;;;;11.00;9.50;;;;;20.18;42.00;101233.25;4997397;28;45361;-41
2023/05/01 07:44:42;;;;;;;;;10.00;9.25;;;;;20.21;41.82;101246.25;4997191;28;45257;-43
2023/05/01 07:47:07;;;;;;;;;11.50;10.25;;;;;20.21;41.82;101241.00;4997511;28;45344;-44
2023/05/01 07:49:37;;;;;;;;;11.00;10.50;;;;;20.24;41.81;101246.09;4996434;28;45420;-44
2023/05/01 07:52:04;;;;;;;;;11.00;11.00;;;;;20.22;41.88;101245.34;4997129;28;45398;-47
2023/05/01 07:54:30;;;;;;;;;9.25;9.25;;;;;20.26;41.99;101252.16;4996734;28;45403;-52
2023/05/01 07:56:55;;;;;;;;;10.50;10.50;;;;;20.26;41.91;101256.56;4997047;28;45425;-48
2023/05/01 07:59:20;;;;;;;;;10.00;10.00;;;;;20.24;41.64;101249.59;4999204;28;45292;-50
2023/05/01 08:01:46;;;;;;;;;10.67;10.00;;;;;20.25;41.57;101255.69;5015097;28;66720;-50
2023/05/01 08:04:11;;;;;;;;;9.50;9.00;;;;;20.24;42.04;101257.50;5008306;28;45222;-45
2023/05/01 08:06:36;;;;;;;;;9.75;9.00;;;;;20.22;42.14;101255.88;4997268;28;45190;-51
2023/05/01 08:09:02;;;;;;;;;11.50;10.00;;;;;20.24;42.26;101261.88;4999733;28;45285;-46
2023/05/01 08:11:28;;;;;;;;;9.75;8.50;;;;;20.22;42.08;101253.22;5000271;28;47164;-41
2023/05/01 08:13:54;;;;;;;;;10.75;10.75;;;;;20.21;42.40;101256.78;4997218;28;46010;-44
2023/05/01 08:16:20;;;;;;;;;11.75;11.00;;;;;20.23;42.25;101260.19;4998541;28;45414;-41
2023/05/01 08:18:45;;;;;;;;;8.75;7.00;;;;;20.24;41.83;101256.63;4997902;28;45380;-46
2023/05/01 08:21:11;;;;;;;;;11.00;9.33;;;;;20.26;42.27;101260.03;4996343;28;61105;-50
2023/05/01 08:23:36;;;;;;;;;8.75;8.75;;;;;20.27;41.97;101260.91;4996542;28;45487;-45
2023/05/01 08:26:02;;;;;;;;;10.25;10.00;;;;;20.20;42.24;101255.09;4997381;28;45320;-41
2023/05/01 08:28:28;;;;;;;;;9.25;8.75;;;;;20.27;42.32;101264.38;4998962;28;45418;-41
2023/05/01 08:30:53;;;;;;;;;11.25;9.00;;;;;20.26;41.70;101273.19;4998821;28;45972;-50
2023/05/01 08:33:18;;;;;;;;;11.25;10.00;;;;;20.26;42.13;101265.31;4998551;28;45166;-50
2023/05/01 18:00:17;;;;;;;;;8.75;8.00;;;;;20.16;44.05;101382.47;4978640;28;45210;-46
2023/05/01 18:02:43;;;;;;;;;6.25;5.25;;;;;20.16;44.05;101385.09;4992865;28;47249;-46
2023/05/01 18:05:09;;;;;;;;;7.00;5.25;;;;;20.18;43.88;101383.25;4993830;28;45804;-46
2023/05/01 18:07:34;;;;;;;;;7.00;6.25;;;;;20.19;43.79;101388.44;4978763;28;45304;-46
2023/05/01 18:10:00;;;;;;;;;10.00;6.00;;;;;20.20;43.69;101386.69;4978862;28;45488;-47
2023/05/01 18:12:25;;;;;;;;;6.25;4.25;;;;;20.17;43.80;101379.78;4979451;28;46876;-44
2023/05/01 18:14:51;;;;;;;;;5.75;4.00;;;;;20.23;43.82;101387.38;4991135;28;45257;-46
2023/05/01 18:17:18;;;;;;;;;6.75;5.25;;;;;20.19;43.63;101372.66;4995703;28;45258;-41
2023/05/01 18:19:43;;;;;;;;;6.25;5.50;;;;;20.25;43.60;101384.66;4985590;28;45332;-45
2023/05/01 18:22:09;;;;;;;;;6.00;6.00;;;;;20.26;43.29;101377.66;4994256;28;48704;-48
2023/05/01 18:24:34;;;;;;;;;5.75;5.75;;;;;20.27;43.50;101390.72;4982500;28;52424;-47
2023/05/01 18:26:59;;;;;;;;;6.50;6.25;;;;;20.28;43.69;101400.34;4979347;28;45293;-46
2023/05/01 18:29:26;;;;;;;;;6.75;6.75;;;;;20.30;43.58;101401.13;4979846;28;45433;-46
2023/05/01 18:31:51;;;;;;;;;7.00;5.75;;;;;20.29;43.34;101404.69;5000588;28;46062;-43
2023/05/01 18:34:18;;;;;;;;;6.00;6.00;;;;;20.32;43.58;101406.31;4977649;28;45393;-40
2023/05/01 18:36:45;;;;;;;;;6.25;5.00;;;;;20.32;43.38;101407.19;4979275;28;45333;-46
2023/05/01 18:39:10;;;;;;;;;5.00;5.00;;;;;20.32;43.59;101409.81;4979025;28;45284;-43
2023/05/01 18:41:35;;;;;;;;;7.25;6.25;;;;;20.28;43.49;101400.34;4978732;28;45965;-42
2023/05/01 18:44:02;;;;;;;;;7.00;7.00;;;;;20.34;43.61;101412.38;4978433;28;60490;-40
2023/05/01 18:46:28;;;;;;;;;8.50;6.00;;;;;20.34;43.56;101418.47;4978980;28;45391;-44
2023/05/01 18:48:53;;;;;;;;;8.00;6.25;;;;;20.35;43.81;101427.25;4979816;28;45483;-44
2023/05/01 18:51:19;;;;;;;;;7.00;6.00;;;;;20.34;43.88;101426.38;4985568;28;46090;-39
2023/05/01 18:53:44;;;;;;;;;7.75;7.00;;;;;20.34;43.88;101431.63;4986598;28;45259;-43
2023/05/01 18:56:09;;;;;;;;;7.00;7.00;;;;;20.32;43.86;101422.09;4995834;28;45249;-42
2023/05/01 18:58:35;;;;;;;;;7.00;7.00;;;;;20.32;43.42;101427.38;4979767;28;45578;-42
2023/05/01 19:01:01;;;;;;;;;7.00;6.00;;;;;20.31;44.17;101426.53;4982649;28;58281;-42
2023/05/01 19:03:26;;;;;;;;;5.75;5.75;;;;;20.36;43.82;101429.78;4987251;28;45728;-44
2023/05/01 19:05:51;;;;;;;;;7.33;6.67;;;;;20.37;43.71;101434.13;4987348;28;53838;-40
2023/05/01 19:08:17;;;;;;;;;6.67;6.67;;;;;20.38;43.31;101437.66;4989493;28;62078;-47
2023/05/01 19:10:42;;;;;;;;;7.00;7.00;;;;;20.38;43.32;101443.75;4986609;28;55301;-39
2023/05/01 19:13:07;;;;;;;;;8.00;7.00;;;;;20.38;43.54;101440.28;4984032;28;45225;-42
2023/05/01 19:15:33;;;;;;;;;7.00;7.00;;;;;20.33;43.46;101435.22;4988821;28;51351;-41
2023/05/01 19:17:58;;;;;;;;;7.00;4.25;;;;;20.39;43.71;101448.09;4992444;28;44786;-39
2023/05/01 19:20:24;;;;;;;;;6.00;6.00;;;;;20.38;43.37;101442.91;4990234;28;46233;-45
2023/05/01 19:22:49;;;;;;;;;4.75;4.75;;;;;20.41;43.88;101447.16;4984935;28;45395;-40
2023/05/01 19:25:15;;;;;;;;;5.75;4.25;;;;;20.40;43.91;101454.19;4988716;28;45405;-42
2023/05/01 19:27:41;;;;;;;;;7.00;6.50;;;;;20.41;43.40;101449.81;4993002;28;45447;-39
2023/05/01 19:30:06;;;;;;;;;6.00;6.00;;;;;20.43;43.64;101461.13;4985157;28;46476;-41
2023/05/01 19:32:32;;;;;;;;;7.75;7.00;;;;;20.44;43.64;101463.69;4978079;28;45522;-42
2023/05/01 19:34:57;;;;;;;;;7.00;6.75;;;;;20.46;43.38;101466.22;4977602;28;45497;-41
2023/05/01 19:37:22;;;;;;;;;6.67;6.67;;;;;20.47;43.74;101468.81;4979691;28;46755;-40
2023/05/01 19:39:48;;;;;;;;;7.50;6.00;;;;;20.50;43.65;101473.09;4979626;28;50054;-42
2023/05/01 19:42:13;;;;;;;;;11.75;9.50;;;;;20.50;43.18;101475.72;4981186;28;54376;-43
2023/05/01 19:44:39;;;;;;;;;7.50;7.00;;;;;20.52;43.52;101476.50;4986492;28;45353;-41
2023/05/01 19:47:04;;;;;;;;;7.00;7.00;;;;;20.51;43.37;101475.63;4980585;28;45266;-47
2023/05/01 19:49:29;;;;;;;;;10.25;7.75;;;;;20.52;43.44;101485.25;4977778;28;45341;-40
2023/05/01 19:51:56;;;;;;;;;5.00;4.00;;;;;20.54;43.10;101496.56;4976941;28;45272;-42
2023/05/01 19:54:23;;;;;;;;;7.00;7.00;;;;;20.59;43.36;101498.16;4977646;28;45436;-41
2023/05/01 19:56:50;;;;;;;;;8.00;7.00;;;;;20.60;43.39;101500.72;4979941;28;45518;-41
2023/05/01 19:59:16;;;;;;;;;9.25;8.00;;;;;20.60;43.19;101507.78;4985282;28;46112;-41
2023/05/01 20:01:41;;;;;;;;;7.75;7.00;;;;;20.59;43.07;101506.91;4990321;28;44820;-41
2023/05/01 20:04:06;;;;;;;;;8.50;7.00;;;;;20.61;43.19;101515.59;4986818;28;45416;-41
2023/05/01 20:06:33;;;;;;;;;7.25;7.25;;;;;20.62;42.92;101513.78;4978458;28;45644;-42
2023/05/01 20:08:58;;;;;;;;;9.00;9.00;;;;;20.61;42.80;101520.84;4992788;28;67188;-43
2023/05/01 20:11:23;;;;;;;;;10.00;9.00;;;;;20.65;42.91;101519.81;4980749;28;55549;-40
2023/05/01 20:13:48;;;;;;;;;7.50;6.75;;;;;20.66;42.76;101520.66;4982561;28;45344;-41
2023/05/01 20:16:14;;;;;;;;;6.67;6.67;;;;;20.66;42.97;101521.53;4979990;28;53700;-39
2023/05/01 20:18:39;;;;;;;;;11.00;8.00;;;;;20.68;42.87;101530.19;4977146;28;71162;-43
2023/05/01 20:21:06;;;;;;;;;7.00;7.00;;;;;20.69;42.74;101531.91;4977808;28;45374;-40
2023/05/01 20:23:33;;;;;;;;;8.00;8.00;;;;;20.69;42.97;101531.91;4977294;28;45337;-41
2023/05/01 20:25:59;;;;;;;;;7.50;7.25;;;;;20.67;43.14;101539.00;4981314;28;45272;-36
2023/05/01 20:28:25;;;;;;;;;10.75;7.25;;;;;20.69;43.01;101536.31;4980371;28;46185;-38
2023/05/01 20:30:51;;;;;;;;;8.00;8.00;;;;;20.70;42.83;101544.16;4994211;28;45372;-38
2023/05/01 20:33:16;;;;;;;;;8.00;7.00;;;;;20.69;42.95;101545.06;4998756;28;44790;-43
2023/05/01 20:35:42;;;;;;;;;7.25;7.25;;;;;20.71;43.08;101547.66;4994688;28;45573;-41
2023/05/01 20:38:07;;;;;;;;;7.50;7.00;;;;;20.69;42.93;101542.44;4993572;28;46016;-43
2023/05/01 20:40:35;;;;;;;;;8.75;8.00;;;;;20.72;42.83;101552.00;4981758;28;55505;-42